Flight Track Log - Related Links

Times and Time Zones

All times are in EDT time to prevent confusion due to time zone crossing. See the N960DL flight status page for this flight to view local times or setup timezone preferences in your user account.

Time Position Orientation Groundspeed Altitude Reporting Facility
EDT Latitude Longitude Course Direction KTS MPH feet Rate Location/Type
Thu 08:38:00 PM 38.8167 -77.0333 237° Southwest 154 177 1,300  Level Potomac TRACON
Thu 08:39:00 PM 38.7667 -77.0500 195° South 231 266 2,900 2,000 Climbing Potomac TRACON
Thu 08:40:00 PM 38.6658 -77.3807 234° Southwest  Level FlightAware Approximate
Thu 08:40:00 PM 38.7500 -77.1333 256° West 262 302 5,300  Level Potomac TRACON
Thu 08:41:00 PM 38.6059 -77.4990 247° West  Level FlightAware Approximate
Thu 08:41:00 PM 38.7333 -77.2167 256° West 258 297 8,400  Level Potomac TRACON
Thu 08:42:00 PM 38.5547 -77.6239 237° Southwest  Level FlightAware Approximate
Thu 08:42:00 PM 38.7000 -77.3000 243° Southwest 270 311 10,800  Level Potomac TRACON
Thu 08:42:54 PM 38.6667 -77.4000 247° West 338 389 11,100 373 Climbing Potomac TRACON
Thu 08:43:00 PM 38.4893 -77.7380 237° Southwest  Level FlightAware Approximate
Thu 08:45:13 PM 38.5919 -77.6236 247° West 314 361 12,000  Level Washington Center
Thu 08:46:14 PM 38.5111 -77.5869 160° South 236 272 12,900 1,412 Climbing Washington Center
Thu 08:47:12 PM 38.4322 -77.5636 167° South 257 296 14,800 1,373 Climbing Washington Center
Thu 08:48:12 PM 38.3725 -77.6494 228° Southwest 271 312 15,600 793 Climbing Washington Center
Thu 08:49:13 PM 38.3164 -77.7617 238° Southwest 302 348 16,400 2,213 Climbing Washington Center
Thu 08:50:14 PM 38.2786 -77.8875 249° West 351 404 20,100 2,678 Climbing Washington Center
Thu 08:51:14 PM 38.2450 -78.0028 250° West 356 410 21,800 1,729 Climbing Washington Center
Thu 08:52:12 PM 38.2111 -78.1233 250° West 356 410 23,500 1,613 Climbing Washington Center
Thu 08:53:13 PM 38.1692 -78.2408 246° West 361 415 25,000 1,426 Climbing Washington Center
Thu 08:54:14 PM 38.0942 -78.3306 223° Southwest 361 415 26,400 1,261 Climbing Washington Center
Thu 08:55:12 PM 38.0025 -78.4114 215° Southwest 366 421 27,500 966 Climbing Washington Center
Thu 08:56:12 PM 37.9089 -78.4869 212° Southwest 379 436 28,300 1,240 Climbing Washington Center
Thu 08:57:13 PM 37.8175 -78.5622 213° Southwest 394 453 30,000 836 Climbing Washington Center
Thu 08:58:14 PM 37.7344 -78.6300 213° Southwest 400 460 30,000  Level Washington Center
Thu 08:59:15 PM 37.6450 -78.7025 213° Southwest 400 460 30,000  Level Washington Center
Thu 09:00:12 PM 37.5553 -78.7800 214° Southwest 400 460 30,000  Level Washington Center
Thu 09:01:13 PM 37.4636 -78.8547 213° Southwest 406 467 30,000  Level Washington Center
Thu 09:02:13 PM 37.3569 -78.9336 210° Southwest 406 467 30,000  Level Washington Center
Thu 09:03:12 PM 37.2592 -78.9997 208° Southwest 401 461 30,000  Level Washington Center
Thu 09:04:12 PM 37.1614 -79.0683 209° Southwest 406 467 30,000  Level Washington Center
Thu 09:05:13 PM 37.0633 -79.1342 208° Southwest 411 473 30,000  Level Washington Center
Thu 09:06:14 PM 36.9633 -79.2025 209° Southwest 411 473 30,000  Level Washington Center
Thu 09:07:12 PM 36.8739 -79.2633 209° Southwest 411 473 30,000  Level Washington Center
Thu 09:08:12 PM 36.7736 -79.3311 208° Southwest 411 473 30,000  Level Washington Center
Thu 09:09:13 PM 36.6733 -79.4014 209° Southwest 411 473 30,000  Level Washington Center
Thu 09:11:32 PM 36.4375 -79.5614 209° Southwest 404 465 30,000  Level Atlanta Center
Thu 09:12:32 PM 36.3381 -79.6339 210° Southwest 410 472 30,000  Level Atlanta Center
Thu 09:13:32 PM 36.2261 -79.7122 209° Southwest 415 478 30,000  Level Atlanta Center
Thu 09:14:32 PM 36.1308 -79.7917 214° Southwest 415 478 30,000  Level Atlanta Center
Thu 09:15:32 PM 36.0403 -79.8864 220° Southwest 425 489 30,000  Level Atlanta Center
Thu 09:16:32 PM 35.9581 -79.9881 225° Southwest 425 489 30,000  Level Atlanta Center
Thu 09:17:32 PM 35.9036 -80.1061 240° Southwest 425 489 30,000  Level Atlanta Center
Thu 09:18:32 PM 35.8533 -80.2342 244° Southwest 431 496 30,000  Level Atlanta Center
Thu 09:19:32 PM 35.7953 -80.3853 245° Southwest 436 502 30,000  Level Atlanta Center
Thu 09:20:32 PM 35.7406 -80.5131 242° Southwest 431 496 30,000  Level Atlanta Center
Thu 09:21:32 PM 35.6881 -80.6433 244° Southwest 431 496 30,000  Level Atlanta Center
Thu 09:22:32 PM 35.6644 -80.7797 258° West 437 503 30,000  Level Atlanta Center
Thu 09:23:32 PM 35.6475 -80.9261 262° West 442 509 30,000  Level Atlanta Center
Thu 09:24:32 PM 35.6322 -81.0722 263° West 442 509 30,000  Level Atlanta Center
Thu 09:25:32 PM 35.6086 -81.2161 259° West 442 509 30,000  Level Atlanta Center
Thu 09:26:32 PM 35.5622 -81.3761 250° West 442 509 30,000  Level Atlanta Center
Thu 09:27:32 PM 35.5044 -81.5056 241° Southwest 442 509 30,000  Level Atlanta Center
Thu 09:28:32 PM 35.4486 -81.6347 242° Southwest 437 503 30,000  Level Atlanta Center
Thu 09:29:32 PM 35.3906 -81.7664 242° Southwest 443 510 30,000  Level Atlanta Center
Thu 09:30:32 PM 35.3325 -81.8978 242° Southwest 443 510 30,000  Level Atlanta Center
Thu 09:31:32 PM 35.2803 -82.0186 242° Southwest 438 504 30,000  Level Atlanta Center
Thu 09:32:32 PM 35.2217 -82.1497 241° Southwest 443 510 30,000  Level Atlanta Center
Thu 09:33:32 PM 35.1592 -82.2833 240° Southwest 448 516 30,000  Level Atlanta Center
Thu 09:34:32 PM 35.0794 -82.4069 232° Southwest 453 521 30,000  Level Atlanta Center
Thu 09:35:32 PM 34.9975 -82.5250 230° Southwest 461 531 30,000  Level Atlanta Center
Thu 09:36:32 PM 34.9175 -82.6431 230° Southwest 466 536 30,000  Level Atlanta Center
Thu 09:37:32 PM 34.8394 -82.7583 230° Southwest 461 531 30,000  Level Atlanta Center
Thu 09:38:32 PM 34.7592 -82.8783 231° Southwest 456 525 30,000 -400 Level Atlanta Center
Thu 09:39:32 PM 34.6728 -83.0058 231° Southwest 451 519 29,200 -1,950 Descending Atlanta Center
Thu 09:40:32 PM 34.5922 -83.1228 230° Southwest 458 527 26,100 -2,800 Descending Atlanta Center
Thu 09:41:32 PM 34.5117 -83.2397 230° Southwest 449 517 23,600 -2,550 Descending Atlanta Center
Thu 09:42:32 PM 34.4331 -83.3511 229° Southwest 449 517 21,000 -2,650 Descending Atlanta Center
Thu 09:43:32 PM 34.3583 -83.4575 230° Southwest 432 497 18,300 -2,300 Descending Atlanta Center
Thu 09:44:32 PM 34.2942 -83.5511 230° Southwest 414 476 16,400 -2,250 Descending Atlanta Center
Thu 09:45:32 PM 34.2256 -83.6469 229° Southwest 396 456 13,800 -2,200 Descending Atlanta Center
Thu 09:46:32 PM 34.1592 -83.7425 230° Southwest 380 437 12,000 -950 Descending Atlanta Center
Thu 09:47:32 PM 34.0989 -83.8281 230° Southwest 353 406 11,900 57 Descending Atlanta Center
Thu 09:48:17 PM 34.0500 -83.8833 223° Southwest 299 344 12,100 -743 Climbing Atlanta TRACON
Thu 09:49:17 PM 33.9833 -83.9500 220° Southwest 302 348 10,600 -1,500 Descending Atlanta TRACON
Thu 09:50:17 PM 33.9000 -83.9500 180° South 304 350 9,100 -800 Descending Atlanta TRACON
Thu 09:51:17 PM 33.8167 -83.9500 180° South 306 352 9,000 -480 Descending Atlanta TRACON
Thu 09:51:32 PM 33.7900 -83.9539 187° South 303 349 8,500 -1,600 Descending Atlanta Center
Thu 09:52:32 PM 33.7086 -83.9739 192° South 303 349 7,000 -800 Descending Atlanta Center
Thu 09:53:32 PM 33.6419 -84.0139 207° Southwest 290 334 6,900 -200 Descending Atlanta Center
Thu 09:54:32 PM 33.6314 -84.0836 260° West 232 267 6,600 -788 Descending Atlanta Center
Thu 09:55:11 PM 33.6333 -84.1333 273° West 207 238 5,600 -1,273 Descending Atlanta TRACON
Thu 09:56:11 PM 33.6333 -84.2000 270° West 191 220 4,500 -950 Descending Atlanta TRACON
Thu 09:57:11 PM 33.6333 -84.2500 270° West 167 192 3,700 -900 Descending Atlanta TRACON
Thu 09:58:11 PM 33.6333 -84.3167 270° West 170 196 2,700 -1,000 Descending Atlanta TRACON

Login

Don't have an account? Register now (free) for customized features, flight alerts, and more!